Rumely, Michigan
Current Conditions -  °F | °C
As of 8:50 AM on Saturday 22 Nov 2014 (Local Time) from KSAW Reporting Station
Overcast Overcast  
Wind Chill: 18°   Ceiling: 10000
Heat Index: 28°   Visibility: 7mi
Dew Point: 25°   Wind: 12mph
Humidity: 86%   Direction: 200°SSW
Pressure: 29.73"   Gusts: NA
Location:  46.35°N, 87.03°W
Report Text: KSAW 221350Z 20010KT 7SM SCT013 OVC100 M02/M04 A2973
Loading
Personal Weather Stations






























Interactive Weather Map New forecast layout! Learn more

10-Day Weather Forecast

Advertisements
Track Severe Weather on mobile